Tiempo atmosférico en la estación meteorológica de Taramundi, Ouria, Asturias (335 m.)



Fecha
DESCASC
Temp. máxima en grados centígrados (hora)
DESCASC
Temp. mínima en grados centígrados (hora)
DESCASC
Temp. media en grados centígrados
DESCASC
Racha de viento máxima en m/sg (hora)
DESCASC
Velocidad máxima media en intervalos de 10 minutos(hora)
DESCASC
Precipitaciones diarias en mm
DESCASC
Precipitaciones de 00:00 a 06:00 en mm
DESCASC
Precipitaciones de 06:00 a 12:00 en mm
DESCASC
Precipitaciones de 12:00 a 18:00 en mm
DESCASC
Precipitaciones de 18:00 a 24:00 en mm
DESCASC
15-08-2019 20.3 (14:50) 13.4 (23:59) 16.8 8.89 (16:50) 6.67 (16:50) 0 0 0 0 0
14-08-2019 22.8 (17:50) 13.2 (00:00) 18 10.83 (13:50) 6.39 (13:50) 0 0 0 0 0
13-08-2019 20 (15:20) 10.1 (00:00) 15.1 7.78 (15:50) 6.39 (16:00) 0 0 0 0 0
12-08-2019 18.5 (14:00) 10.6 (00:00) 14.6 7.78 (18:40) 5.56 (18:00) 0 0 0 0 0
11-08-2019 19.8 (14:00) 12.2 (00:00) 16 9.17 (13:30) 5.28 (13:30) 6.8 0 0 6.2 0.6
10-08-2019 23.2 (14:50) 15.5 (00:00) 19.4 13.61 (05:00) 7.5 (17:50) 0 0 0 0 0
09-08-2019 24.4 (00:00) 17.4 (00:00) 20.9 25.56 (11:00) 14.72 (07:20) 0.8 0.8 0 0 0
08-08-2019 28.1 (14:00) 20.8 (00:00) 24.4 21.11 (11:30) 13.06 (11:30) 1.8 0 0 1.8 0
07-08-2019 23.5 (13:50) 15.9 (00:00) 19.7 13.33 (23:50) 7.5 (23:59) 1 0 0.2 0 0.8
06-08-2019 23.4 (14:50) 15.7 (00:00) 19.5 10.28 (11:50) 6.39 (11:50) 0.4 0 0 0.2 0.2
05-08-2019 24.2 (13:30) 14.7 (00:00) 19.5 9.17 (18:00) 6.94 (17:50) 0 0 0 0 0
04-08-2019 22.5 (15:10) 16.7 (00:00) 19.6 9.44 (16:10) 7.5 (16:10) 0.8 0 0.8 0 0
03-08-2019 24.2 (13:50) 16.1 (00:00) 20.2 8.33 (15:30) 6.11 (16:30) 0 0 0 0 0
02-08-2019 22.9 (17:10) 14.6 (00:00) 18.8 6.39 (16:50) 5 (16:50) 0 0 0 0 0
01-08-2019 19.3 (12:40) 15.4 (00:00) 17.3 8.89 (12:20) 6.39 (13:30) 0 0 0 0 0
31-07-2019 18.6 (13:00) 9.8 (00:00) 14.2 8.89 (18:40) 6.67 (18:40) 0 0 0 0 0
30-07-2019 19 (16:10) 12.2 (00:00) 15.6 8.61 (17:00) 6.39 (17:20) 0 0 0 0 0
29-07-2019 21.6 (15:40) 14.6 (00:00) 18.1 16.11 (15:40) 10 (12:50) 0 0 0 0 0
28-07-2019 23.1 (18:20) 10.9 (00:00) 17 5.56 (14:50) 4.17 (16:00) 0.2 0 0.2 0 0
27-07-2019 19.1 (16:50) 13.2 (00:00) 16.2 8.61 (17:40) 6.67 (17:40) 15.8 2.8 13 0 0
26-07-2019 19.6 (17:40) 14.6 (00:00) 17.1 8.06 (18:20) 6.11 (18:30) 2 0 0 0 2
25-07-2019 26.5 (14:10) 16.4 (00:00) 21.4 13.61 (09:20) 8.61 (09:20) 1.2 0 0 0.8 0.4
24-07-2019 24.8 (14:50) 16.7 (00:00) 20.8 6.39 (16:50) 5.28 (17:10) 0 0 0 0 0
23-07-2019 23.8 (12:00) 17.2 (00:00) 20.5 7.5 (16:20) 6.39 (16:30) 0.6 0.4 0.2 0 0
22-07-2019 21.4 (16:00) 17.2 (00:00) 19.3 5.28 (00:10) 3.61 (15:30) 0.2 0 0 0 0.2
21-07-2019 19.2 (18:00) 15.4 (00:00) 17.3 8.06 (15:00) 6.11 (18:20) 0 0 0 0 0
20-07-2019 23.5 (13:40) 14.9 (00:00) 19.2 9.44 (15:30) 7.5 (15:30) 0 0 0 0 0
19-07-2019 22.7 (16:00) 15.6 (00:00) 19.2 6.11 (18:40) 5 (18:40) 0 0 0 0 0

Gráficas

Temp. máximas Temp. mínimas Temp. medias Precipitaciones Rachas de viento máximas Velocidades máximas media en intervalos de 10 minutos

Datos horarios

Fecha y hora oficial Temperatura (ºC) Velocidad del viento (km/h) Dirección del viento Racha (km/h) Dirección de racha Precipitación (mm) Presión (hPa) Tendencia (hPa) Humedad (%)
2019-08-17 23:00:00 21.5 22 Sur 42 Sur 0 -- -- 78
2019-08-17 22:00:00 22.5 21 Sur 36 Sur 0 -- -- 74
2019-08-17 21:00:00 24 19 Sur 34 Sur 0 -- -- 67
2019-08-17 20:00:00 25.7 17 Sur 31 Sur 0 -- -- 62
2019-08-17 19:00:00 27.8 13 Sur 32 Sur 0 -- -- 57
2019-08-17 18:00:00 28.5 21 Sur 43 Sur 0 -- -- 55
2019-08-17 17:00:00 28 27 Sur 44 Sur 0 -- -- 56
2019-08-17 16:00:00 27.5 26 Sur 45 Sur 0 -- -- 58
2019-08-17 15:00:00 26.9 18 Sur 41 Sur 0 -- -- 62
2019-08-17 14:00:00 25.9 22 Sur 40 Sur 0 -- -- 65
2019-08-17 13:00:00 24.6 23 Sur 39 Sur 0 -- -- 70
2019-08-17 12:00:00 23.3 20 Sur 34 Sur 0 -- -- 74
2019-08-17 11:00:00 22 25 Sur 42 Sur 0 -- -- 78
2019-08-17 10:00:00 20.8 30 Sur 48 Sur 0 -- -- 79
2019-08-17 09:00:00 19 26 Sur 42 Sur 0 -- -- 83
2019-08-17 08:00:00 18.5 27 Sur 47 Sur 0 -- -- 83
2019-08-17 07:00:00 17.7 22 Sur 42 Sudoeste 0 -- -- 89
2019-08-17 06:00:00 17.9 27 Sur 48 Sur 0 -- -- 89
2019-08-17 05:00:00 18 20 Sur 31 Sur 0 -- -- 88
2019-08-17 04:00:00 18.8 2 Oeste 24 Sudeste 0 -- -- 81
2019-08-17 03:00:00 19.7 12 Sur 23 Sudeste 0 -- -- 77
2019-08-17 02:00:00 20.2 21 Sur 37 Sur 0 -- -- 80
2019-08-17 01:00:00 19.6 15 Sur 38 Sur 0 -- -- 88
2019-08-17 00:00:00 19.8 16 Sur 31 Sur 0 -- -- 89
2019-08-16 23:00:00 19.5 9 Sur 18 Sudoeste 0 -- -- 90
2019-08-16 22:00:00 18.4 7 Sur 10 Sur 0 -- -- 92
2019-08-16 21:00:00 19.6 6 Sur 10 Sudeste 0 -- -- 86
2019-08-16 20:00:00 20.7 5 Noroeste 18 Norte 0 -- -- 82
2019-08-16 19:00:00 22.1 14 Norte 21 Norte 0 -- -- 78
2019-08-16 18:00:00 22.7 12 Norte 17 Norte 0 -- -- 76
2019-08-16 17:00:00 22.2 10 Norte 23 Norte 0 -- -- 77
2019-08-16 16:00:00 21.6 17 Norte 21 Norte 0 -- -- 78
2019-08-16 15:00:00 21 17 Norte 24 Norte 0 -- -- 79
2019-08-16 14:00:00 23.2 16 Norte 20 Norte 0 -- -- 72
2019-08-16 13:00:00 22.3 9 Norte 13 Norte 0 -- -- 73
2019-08-16 12:00:00 20.7 6 Norte 14 Sur 0 -- -- 78
2019-08-16 11:00:00 18.9 11 Sur 15 Sudeste 0 -- -- 83
2019-08-16 10:00:00 16.2 9 Sur 14 Sur 0 -- -- 92
2019-08-16 09:00:00 13.7 8 Sur 17 Sur 0 -- -- 96
2019-08-16 08:00:00 13.4 10 Sur 19 Sur 0 -- -- 97
2019-08-16 07:00:00 13.1 11 Sur 20 Sur 0 -- -- 97
2019-08-16 06:00:00 13.3 13 Sur 20 Sur 0 -- -- 97
2019-08-16 05:00:00 12.9 9 Sur 14 Sur 0 -- -- 99
2019-08-16 04:00:00 12.5 6 Sur 9 Sur 0 -- -- 100
2019-08-16 03:00:00 12.8 6 Sur 14 Sudoeste 0 -- -- 100
2019-08-16 02:00:00 12.7 7 Sur 10 Sur 0 -- -- 100
2019-08-16 01:00:00 13 5 Sur 8 Sur 0 -- -- 100
2019-08-16 00:00:00 13.4 4 Sur 7 Sur 0 -- -- 98
2019-08-15 23:00:00 13.9 4 Sur 6 Noroeste 0 -- -- 96
2019-08-15 22:00:00 14.9 5 Norte 17 Norte 0 -- -- 94
2019-08-15 21:00:00 15.8 10 Norte 18 Norte 0 -- -- 90
2019-08-15 20:00:00 17.8 13 Norte 23 Norte 0 -- -- 83
2019-08-15 19:00:00 19.1 19 Norte 25 Norte 0 -- -- 79
2019-08-15 18:00:00 19.5 19 Norte 28 Norte 0 -- -- 77
2019-08-15 17:00:00 19.4 22 Norte 32 Norte 0 -- -- 79
2019-08-15 16:00:00 19.9 22 Norte 28 Norte 0 -- -- 77
2019-08-15 15:00:00 20 18 Norte 26 Norte 0 -- -- 78
2019-08-15 14:00:00 18.8 16 Norte 21 Norte 0 -- -- 84
2019-08-15 13:00:00 18.4 15 Norte 19 Norte 0 -- -- 86
2019-08-15 12:00:00 17.7 9 Norte 15 Norte 0 -- -- 86
2019-08-15 11:00:00 17 11 Norte 14 Norte 0 -- -- 90
2019-08-15 10:00:00 16.4 8 Norte 14 Norte 0 -- -- 92
2019-08-15 09:00:00 14.4 3 Nordeste 5 Norte 0 -- -- 98
2019-08-15 08:00:00 14.4 0 Calma 4 Noroeste 0 -- -- 100
2019-08-15 07:00:00 14.3 3 Norte 8 Norte 0 -- -- 100
2019-08-15 06:00:00 14.7 5 Norte 8 Noroeste 0 -- -- 100
2019-08-15 05:00:00 14.8 5 Norte 11 Norte 0 -- -- 100
2019-08-15 04:00:00 15.1 8 Norte 15 Norte 0 -- -- 100
2019-08-15 03:00:00 15.2 7 Norte 14 Norte 0 -- -- 100
2019-08-15 02:00:00 15.4 10 Norte 18 Norte 0 -- -- 100
2019-08-15 01:00:00 16.2 10 Norte 15 Norte 0 -- -- 100
2019-08-15 00:00:00 16.5 10 Norte 17 Norte 0 -- -- 100
2019-08-14 23:00:00 17.2 14 Norte 18 Norte 0 -- -- 100
2019-08-14 22:00:00 17.9 11 Norte 19 Norte 0 -- -- 100
2019-08-14 21:00:00 18.9 14 Norte 19 Norte 0 -- -- 97
2019-08-14 20:00:00 20.1 14 Norte 18 Norte 0 -- -- 93
2019-08-14 19:00:00 21.8 8 Norte 10 Norte 0 -- -- 87
2019-08-14 18:00:00 22.6 10 Sur 25 Sur 0 -- -- 81
2019-08-14 17:00:00 22.4 16 Sur 27 Sur 0 -- -- 80
2019-08-14 16:00:00 22.6 17 Sur 29 Sur 0 -- -- 79
2019-08-14 15:00:00 22.5 14 Sur 32 Sur 0 -- -- 76
2019-08-14 14:00:00 21.8 19 Sur 39 Sur 0 -- -- 76
2019-08-14 13:00:00 20.7 18 Sur 32 Sudoeste 0 -- -- 77
2019-08-14 12:00:00 20.8 16 Sur 35 Sur 0 -- -- 69
2019-08-14 11:00:00 19.5 17 Sur 29 Sur 0 -- -- 65
2019-08-14 10:00:00 18.3 20 Sur 38 Sur 0 -- -- 61
2019-08-14 09:00:00 14.9 13 Sur 28 Sur 0 -- -- 80
2019-08-14 08:00:00 13.9 11 Sur 23 Sur 0 -- -- 83
2019-08-14 07:00:00 13.5 12 Sur 21 Sudeste 0 -- -- 91
2019-08-14 06:00:00 13.6 12 Sur 22 Sur 0 -- -- 95
2019-08-14 05:00:00 13.2 10 Sur 22 Sur 0 -- -- 97
2019-08-14 04:00:00 13.4 10 Sur 21 Sur 0 -- -- 98
2019-08-14 03:00:00 13.2 9 Sur 14 Sur 0 -- -- 99
2019-08-14 02:00:00 13.8 7 Sur 16 Sur 0 -- -- 98
2019-08-14 01:00:00 13.7 3 Sudoeste 9 Sur 0 -- -- 97
2019-08-14 00:00:00 14 5 Sur 8 Sur 0 -- -- 96
2019-08-13 23:00:00 14.2 3 Sur 4 Sur 0 -- -- 95
2019-08-13 22:00:00 15 0 Calma 10 Norte 0 -- -- 91
2019-08-13 21:00:00 15.9 7 Norte 14 Norte 0 -- -- 88
2019-08-13 20:00:00 17.9 11 Norte 26 Norte 0 -- -- 81
2019-08-13 19:00:00 19.1 20 Norte 28 Norte 0 -- -- 78
2019-08-13 18:00:00 19.6 23 Norte 28 Norte 0 -- -- 76
2019-08-13 17:00:00 19.7 19 Norte 28 Norte 0 -- -- 75
2019-08-13 16:00:00 19.4 23 Norte 28 Nordeste 0 -- -- 75
2019-08-13 15:00:00 19.5 17 Norte 26 Norte 0 -- -- 76
2019-08-13 14:00:00 19.1 17 Norte 25 Norte 0 -- -- 77
2019-08-13 13:00:00 18.6 10 Norte 18 Norte 0 -- -- 75
2019-08-13 12:00:00 16.9 6 Norte 16 Norte 0 -- -- 78
2019-08-13 11:00:00 16.1 6 Norte 11 Norte 0 -- -- 84
2019-08-13 10:00:00 13.7 5 Sur 7 Sudeste 0 -- -- 93
2019-08-13 09:00:00 10.9 5 Sur 7 Sur 0 -- -- 99
2019-08-13 08:00:00 10.1 4 Sur 5 Sur 0 -- -- 100
2019-08-13 07:00:00 10.2 4 Sudoeste 6 Sur 0 -- -- 99
2019-08-13 06:00:00 10.2 4 Sur 6 Sur 0 -- -- 99
2019-08-13 05:00:00 11.3 2 Norte 9 Noroeste 0 -- -- 96
2019-08-13 04:00:00 11.6 3 Norte 7 Noroeste 0 -- -- 96
2019-08-13 03:00:00 11.8 3 Norte 7 Norte 0 -- -- 96
2019-08-13 02:00:00 12.4 3 Norte 12 Noroeste 0 -- -- 95
2019-08-13 01:00:00 12.8 5 Norte 14 Norte 0 -- -- 93
2019-08-13 00:00:00 13.1 3 Norte 9 Norte 0 -- -- 92
2019-08-12 23:00:00 13.2 4 Norte 15 Norte 0 -- -- 93
2019-08-12 22:00:00 13.2 8 Norte 14 Norte 0 -- -- 93
2019-08-12 21:00:00 14.6 12 Norte 18 Norte 0 -- -- 87
2019-08-12 20:00:00 15.8 16 Norte 24 Norte 0 -- -- 80
2019-08-12 19:00:00 16.9 18 Norte 28 Norte 0 -- -- 73
2019-08-12 18:00:00 16.6 20 Norte 26 Norte 0 -- -- 77
2019-08-12 17:00:00 16.8 18 Norte 26 Norte 0 -- -- 74
2019-08-12 16:00:00 18 18 Norte 25 Norte 0 -- -- 73
2019-08-12 15:00:00 17.9 17 Norte 23 Norte 0 -- -- 71
2019-08-12 14:00:00 18.5 8 Norte 19 Norte 0 -- -- 72
2019-08-12 13:00:00 16.3 13 Norte 18 Norte 0 -- -- 79
2019-08-12 12:00:00 16.2 5 Norte 16 Norte 0 -- -- 76
2019-08-12 11:00:00 15.9 6 Sur 14 Sudeste 0 -- -- 81
2019-08-12 10:00:00 13.9 9 Sur 12 Sur 0 -- -- 91
2019-08-12 09:00:00 11.5 8 Sur 12 Sur 0 -- -- 99
2019-08-12 08:00:00 11.3 7 Sur 13 Sur 0 -- -- 99
2019-08-12 07:00:00 10.9 8 Sur 13 Sur 0 -- -- 100
2019-08-12 06:00:00 10.7 4 Sur 10 Sur 0 -- -- 99
2019-08-12 05:00:00 11.1 5 Sur 10 Sudoeste 0 -- -- 99
2019-08-12 04:00:00 11.3 5 Sur 12 Sur 0 -- -- 98
2019-08-12 03:00:00 11.7 6 Sur 12 Sur 0 -- -- 98
2019-08-12 02:00:00 11.8 6 Sur 9 Sudoeste 0 -- -- 97
2019-08-12 01:00:00 12 5 Sur 14 Sur 0 -- -- 96
2019-08-12 00:00:00 13 4 Sur 12 Sudoeste 0 -- -- 94
2019-08-11 23:00:00 13.6 3 Sur 5 Sur 0 -- -- 94
2019-08-11 22:00:00 14.5 2 Sur 8 Noroeste 0 -- -- 94
2019-08-11 21:00:00 15.2 5 Norte 8 Norte 0 -- -- 95
2019-08-11 20:00:00 15.6 4 Noroeste 19 Norte 0.6 -- -- 91
2019-08-11 19:00:00 17.5 9 Sur 21 Sur 0 -- -- 74
2019-08-11 18:00:00 17.7 10 Sur 21 Sur 0 -- -- 75
2019-08-11 17:00:00 16.5 10 Sur 17 Sur 0.2 -- -- 84
2019-08-11 16:00:00 14.8 3 Sudoeste 23 Norte 6 -- -- 95
2019-08-11 15:00:00 17.2 15 Norte 30 Sur 0 -- -- 75
2019-08-11 14:00:00 19.8 19 Sur 33 Sur 0 -- -- 61
2019-08-11 13:00:00 19.3 15 Sur 27 Sur 0 -- -- 61
2019-08-11 12:00:00 17.8 14 Sur 27 Sur 0 -- -- 71
2019-08-11 11:00:00 16.4 13 Sur 27 Sur 0 -- -- 78
2019-08-11 10:00:00 15.2 13 Sur 23 Sur 0 -- -- 86
2019-08-11 09:00:00 12.7 8 Sur 11 Sur 0 -- -- 96
2019-08-11 08:00:00 12.3 6 Sur 9 Sur 0 -- -- 94
2019-08-11 07:00:00 12.6 4 Sur 6 Sur 0 -- -- 92
2019-08-11 06:00:00 13.2 3 Sur 4 Sur 0 -- -- 91
2019-08-11 05:00:00 13.9 4 Sur 5 Sur 0 -- -- 92
2019-08-11 04:00:00 14.1 3 Sur 5 Sur 0 -- -- 93
2019-08-11 03:00:00 14.9 0 Calma 5 Noroeste 0 -- -- 91
2019-08-11 02:00:00 15.4 2 Norte 6 Norte 0 -- -- 90
2019-08-11 01:00:00 15.6 3 Norte 9 Norte 0 -- -- 91
2019-08-11 00:00:00 15.7 9 Norte 16 Norte 0 -- -- 92
2019-08-10 23:00:00 16 11 Norte 20 Norte 0 -- -- 92
2019-08-10 22:00:00 16.2 12 Norte 21 Norte 0 -- -- 87
2019-08-10 21:00:00 16.7 12 Norte 25 Norte 0 -- -- 84
2019-08-10 20:00:00 17.1 19 Norte 31 Norte 0 -- -- 85
2019-08-10 19:00:00 18.3 25 Norte 32 Norte 0 -- -- 81
2019-08-10 18:00:00 19.1 22 Norte 35 Norte 0 -- -- 78
2019-08-10 17:00:00 19.6 19 Norte 28 Norte 0 -- -- 76
2019-08-10 16:00:00 19 20 Norte 30 Norte 0 -- -- 74
2019-08-10 15:00:00 22.9 14 Sur 27 Sur 0 -- -- 57
2019-08-10 14:00:00 21.7 5 Sudeste 31 Sur 0 -- -- 56
2019-08-10 13:00:00 20.8 21 Sur 31 Sudeste 0 -- -- 58
2019-08-10 12:00:00 19.1 21 Sur 36 Sur 0 -- -- 66
2019-08-10 11:00:00 17.8 22 Sur 36 Sur 0 -- -- 74
2019-08-10 10:00:00 17.6 22 Sur 40 Sur 0 -- -- 77
2019-08-10 09:00:00 16.2 17 Sur 30 Sur 0 -- -- 81
2019-08-10 08:00:00 15.7 16 Sur 31 Sur 0 -- -- 82
2019-08-10 07:00:00 15.9 18 Sur 35 Sur 0 -- -- 82
2019-08-10 06:00:00 16 17 Sur 39 Sur 0 -- -- 82
2019-08-10 05:00:00 16.6 21 Sur 49 Sur 0 -- -- 78
2019-08-10 04:00:00 16.8 15 Sur 34 Sur 0 -- -- 77
2019-08-10 03:00:00 16.7 19 Sur 39 Sur 0 -- -- 77
2019-08-10 02:00:00 17 15 Sur 37 Sur 0 -- -- 77
2019-08-10 01:00:00 17.3 17 Sur 34 Sur 0 -- -- 77
2019-08-10 00:00:00 17.4 18 Sur 33 Sur 0 -- -- 76
2019-08-09 23:00:00 18 19 Sur 45 Sur 0 -- -- 73
2019-08-09 22:00:00 18.7 21 Sur 52 Sur 0 -- -- 68
2019-08-09 21:00:00 20 21 Sur 52 Sur 0 -- -- 65
2019-08-09 20:00:00 20.8 27 Sur 55 Sudeste 0 -- -- 62
2019-08-09 19:00:00 22.1 26 Sur 62 Sur 0 -- -- 59
2019-08-09 18:00:00 22.1 41 Sur 70 Sur 0 -- -- 56
2019-08-09 17:00:00 22.5 41 Sur 77 Sudoeste 0 -- -- 51
2019-08-09 16:00:00 23.8 48 Sur 82 Sur 0 -- -- 47
2019-08-09 15:00:00 21.4 43 Sur 68 Sur 0 -- -- 68
2019-08-09 14:00:00 22.7 35 Sur 68 Sur 0 -- -- 62
2019-08-09 13:00:00 21.3 35 Sur 76 Sur 0 -- -- 71
2019-08-09 12:00:00 21.6 44 Sur 84 Sur 0 -- -- 63
2019-08-09 11:00:00 20.9 52 Sur 92 Sur 0 -- -- 63
2019-08-09 10:00:00 19.8 49 Sur 81 Sur 0 -- -- 68
2019-08-09 09:00:00 18.7 45 Sur 76 Sudoeste 0 -- -- 70
2019-08-09 08:00:00 18.7 51 Sur 81 Sur 0 -- -- 70
2019-08-09 07:00:00 18.6 48 Sur 80 Sudoeste 0 -- -- 70
2019-08-09 06:00:00 18.2 40 Sur 76 Sur 0 -- -- 76
2019-08-09 05:00:00 18.5 36 Sur 62 Sur 0 -- -- 80
2019-08-09 04:00:00 18.7 30 Sur 57 Sur 0 -- -- 86
2019-08-09 03:00:00 18.7 29 Sur 49 Sur 0.8 -- -- 94
2019-08-09 02:00:00 23.7 18 Sur 66 Sur 0 -- -- 74
2019-08-09 01:00:00 24 36 Sur 65 Sur 0 -- -- 72
2019-08-09 00:00:00 24.4 33 Sur 72 Sur 0 -- -- 71
2019-08-08 23:00:00 24.4 33 Sur 76 Sur 0 -- -- 70
2019-08-08 22:00:00 24.3 39 Sur 62 Sur 0 -- -- 68
2019-08-08 21:00:00 24 29 Sur 57 Sur 0 -- -- 72
2019-08-08 20:00:00 24 22 Sur 57 Sur 0 -- -- 76
2019-08-08 19:00:00 26 32 Sur 55 Sur 0 -- -- 69
2019-08-08 18:00:00 27.1 26 Sur 54 Sur 0 -- -- 69
2019-08-08 17:00:00 26.7 32 Sur 60 Sur 0 -- -- 72
2019-08-08 16:00:00 24.9 25 Sur 53 Sur 1.6 -- -- 86
2019-08-08 15:00:00 27.3 32 Sur 70 Sur 0.2 -- -- 67
2019-08-08 14:00:00 28.1 32 Sur 58 Sur 0 -- -- 62
2019-08-08 13:00:00 26.6 27 Sur 60 Sur 0 -- -- 67
2019-08-08 12:00:00 25.8 37 Sur 76 Sudeste 0 -- -- 69
2019-08-08 11:00:00 25.1 45 Sur 68 Sur 0 -- -- 69
2019-08-08 10:00:00 24.3 34 Sur 66 Sur 0 -- -- 70
2019-08-08 09:00:00 23 36 Sur 60 Sur 0 -- -- 75
2019-08-08 08:00:00 22.4 24 Sur 55 Sur 0 -- -- 78
2019-08-08 07:00:00 22.5 21 Sur 46 Sur 0 -- -- 76
2019-08-08 06:00:00 22.4 23 Sur 49 Sur 0 -- -- 76
2019-08-08 05:00:00 22.4 24 Sur 44 Sur 0 -- -- 75
2019-08-08 04:00:00 22.3 20 Sur 42 Sur 0 -- -- 76
2019-08-08 03:00:00 21.4 14 Sur 35 Sur 0 -- -- 78
2019-08-08 02:00:00 21.3 15 Sur 37 Sur 0 -- -- 78
2019-08-08 01:00:00 21 19 Sur 48 Sur 0 -- -- 80
2019-08-08 00:00:00 22 27 Sur 48 Sur 0 -- -- 74
2019-08-07 23:00:00 21.5 9 Sur 42 Sur 0 -- -- 77
2019-08-07 22:00:00 21.5 14 Sur 38 Sur 0 -- -- 78
2019-08-07 21:00:00 21.6 20 Sur 38 Sur 0 -- -- 78
2019-08-07 20:00:00 21.6 17 Sur 37 Sur 0 -- -- 79
2019-08-07 19:00:00 20.9 17 Sur 43 Sur 0.8 -- -- 86
2019-08-07 18:00:00 21.9 21 Sur 39 Sur 0 -- -- 79
2019-08-07 17:00:00 22.4 14 Sur 34 Sur 0 -- -- 76
2019-08-07 16:00:00 22.8 17 Sur 36 Sudeste 0 -- -- 74
2019-08-07 15:00:00 22 19 Sur 33 Sur 0 -- -- 76
2019-08-07 14:00:00 23.4 9 Sur 20 Sur 0 -- -- 67
2019-08-07 13:00:00 22.7 11 Sur 25 Sur 0 -- -- 76
2019-08-07 12:00:00 22.7 8 Norte 10 Norte 0 -- -- 78
2019-08-07 11:00:00 21.6 4 Sur 15 Sur 0 -- -- 76
2019-08-07 10:00:00 19.5 10 Sur 14 Sur 0.2 -- -- 87
2019-08-07 09:00:00 16.9 5 Sur 11 Sudoeste 0 -- -- 100
2019-08-07 08:00:00 16.3 6 Sudoeste 14 Sur 0 -- -- 100
2019-08-07 07:00:00 15.9 7 Sur 10 Sur 0 -- -- 100
2019-08-07 06:00:00 16.3 6 Sudoeste 15 Sur 0 -- -- 100
2019-08-07 05:00:00 16.7 8 Sur 14 Sur 0 -- -- 100
2019-08-07 04:00:00 16.9 8 Sur 14 Sudoeste 0 -- -- 100
2019-08-07 03:00:00 17.3 5 Sur 9 Sur 0 -- -- 100
2019-08-07 02:00:00 17.5 3 Norte 5 Norte 0 -- -- 100
2019-08-07 01:00:00 17.6 3 Norte 5 Norte 0 -- -- 100
2019-08-07 00:00:00 17.6 2 Nordeste 7 Norte 0 -- -- 100
2019-08-06 23:00:00 17.8 4 Norte 13 Norte 0 -- -- 100
2019-08-06 22:00:00 18 6 Norte 10 Norte 0 -- -- 100
2019-08-06 21:00:00 18.4 9 Norte 20 Norte 0 -- -- 100
2019-08-06 20:00:00 19.8 3 Noroeste 9 Sur 0 -- -- 92
2019-08-06 19:00:00 20.3 7 Sur 13 Sur 0.2 -- -- 93
2019-08-06 18:00:00 21.3 0 Calma 27 Sur 0.2 -- -- 89
2019-08-06 17:00:00 22.5 14 Sur 28 Sudeste 0 -- -- 78
2019-08-06 16:00:00 23 12 Sur 24 Sur 0 -- -- 74
2019-08-06 15:00:00 23.2 13 Sur 24 Sur 0 -- -- 73
2019-08-06 14:00:00 23.2 14 Sur 26 Sur 0 -- -- 73
2019-08-06 13:00:00 22.5 14 Sur 27 Sur 0 -- -- 76
2019-08-06 12:00:00 21.3 21 Sur 37 Sur 0 -- -- 79
2019-08-06 11:00:00 20.3 19 Sur 32 Sur 0 -- -- 85
2019-08-06 10:00:00 18.9 17 Sur 31 Sur 0 -- -- 90
2019-08-06 09:00:00 18.4 13 Sur 26 Sur 0 -- -- 93
2019-08-06 08:00:00 17.2 6 Sur 14 Sur 0 -- -- 97
2019-08-06 07:00:00 17.2 6 Sur 13 Sur 0 -- -- 97
2019-08-06 06:00:00 17.1 4 Sur 8 Sur 0 -- -- 97
2019-08-06 05:00:00 16.8 5 Sudoeste 12 Sur 0 -- -- 98
2019-08-06 04:00:00 16.4 6 Sur 10 Sudeste 0 -- -- 100
2019-08-06 03:00:00 16 4 Sur 10 Sur 0 -- -- 99
2019-08-06 02:00:00 16.3 4 Sudoeste 10 Sur 0 -- -- 99
2019-08-06 01:00:00 15.8 4 Sur 6 Sur 0 -- -- 100
2019-08-06 00:00:00 16.2 2 Sur 6 Sudeste 0 -- -- 99
2019-08-05 23:00:00 16.5 2 Sur 6 Norte 0 -- -- 98
2019-08-05 22:00:00 17.2 6 Norte 19 Norte 0 -- -- 95
2019-08-05 21:00:00 18.1 14 Norte 21 Norte 0 -- -- 91
2019-08-05 20:00:00 19.6 18 Norte 30 Norte 0 -- -- 82
2019-08-05 19:00:00 20.4 24 Norte 32 Norte 0 -- -- 81
2019-08-05 18:00:00 21.2 24 Norte 33 Norte 0 -- -- 74
2019-08-05 17:00:00 22.8 20 Norte 28 Norte 0 -- -- 68
2019-08-05 16:00:00 23.3 22 Norte 27 Norte 0 -- -- 70
2019-08-05 15:00:00 23.8 17 Norte 24 Norte 0 -- -- 68
2019-08-05 14:00:00 24.2 13 Norte 23 Norte 0 -- -- 67
2019-08-05 13:00:00 23.8 9 Norte 16 Norte 0 -- -- 65
2019-08-05 12:00:00 22.8 8 Sudeste 13 Sur 0 -- -- 67
2019-08-05 11:00:00 20.5 8 Sur 13 Sur 0 -- -- 81
2019-08-05 10:00:00 17.5 9 Sur 17 Sur 0 -- -- 96
2019-08-05 09:00:00 15.1 9 Sur 18 Sur 0 -- -- 100
2019-08-05 08:00:00 14.8 9 Sur 18 Sur 0 -- -- 100
2019-08-05 07:00:00 14.9 10 Sur 18 Sur 0 -- -- 100
2019-08-05 06:00:00 15 9 Sur 17 Sur 0 -- -- 100
2019-08-05 05:00:00 15.2 9 Sur 15 Sur 0 -- -- 100
2019-08-05 04:00:00 15.5 8 Sur 15 Sur 0 -- -- 100
2019-08-05 03:00:00 16.1 8 Sur 14 Sur 0 -- -- 100
2019-08-05 02:00:00 16.6 9 Sur 13 Sudoeste 0 -- -- 100
2019-08-05 01:00:00 16.8 3 Sur 5 Sur 0 -- -- 99
2019-08-05 00:00:00 16.9 0 Calma 7 Norte 0 -- -- 99
2019-08-04 23:00:00 17 8 Norte 12 Norte 0 -- -- 99
2019-08-04 22:00:00 17.2 7 Norte 18 Norte 0 -- -- 97
2019-08-04 21:00:00 17.6 12 Norte 17 Norte 0 -- -- 95
2019-08-04 20:00:00 17.9 13 Norte 18 Norte 0 -- -- 93
2019-08-04 19:00:00 18 14 Norte 22 Norte 0 -- -- 93
2019-08-04 18:00:00 18.4 17 Norte 26 Norte 0 -- -- 93
2019-08-04 17:00:00 19.6 22 Norte 34 Norte 0 -- -- 91
2019-08-04 16:00:00 21.5 23 Norte 33 Norte 0 -- -- 81
2019-08-04 15:00:00 22.3 18 Norte 29 Norte 0 -- -- 82
2019-08-04 14:00:00 22.2 12 Norte 17 Norte 0 -- -- 79
2019-08-04 13:00:00 20 9 Norte 15 Norte 0 -- -- 93
2019-08-04 12:00:00 17.8 6 Noroeste 14 Norte 0 -- -- 100
2019-08-04 11:00:00 18.1 7 Norte 8 Norte 0 -- -- 100
2019-08-04 10:00:00 17.4 4 Norte 5 Norte 0 -- -- 100
2019-08-04 09:00:00 16.9 3 Noroeste 13 Noroeste 0 -- -- 100
2019-08-04 08:00:00 16.7 8 Nordeste 15 Norte 0.8 -- -- 100
2019-08-04 07:00:00 17.3 4 Norte 5 Norte 0 -- -- 100
2019-08-04 06:00:00 17.3 4 Norte 5 Norte 0 -- -- 100
2019-08-04 05:00:00 17.3 5 Norte 7 Norte 0 -- -- 100
2019-08-04 04:00:00 17.4 5 Norte 11 Norte 0 -- -- 100
2019-08-04 03:00:00 17.4 6 Norte 9 Norte 0 -- -- 100
2019-08-04 02:00:00 17.6 0 Calma 6 Norte 0 -- -- 100
2019-08-04 01:00:00 17.9 3 Noroeste 6 Nordeste 0 -- -- 100
2019-08-04 00:00:00 18.2 5 Norte 6 Norte 0 -- -- 98
2019-08-03 23:00:00 18.3 3 Norte 7 Noroeste 0 -- -- 98
2019-08-03 22:00:00 18.3 5 Nordeste 10 Norte 0 -- -- 97
2019-08-03 21:00:00 18.7 6 Norte 14 Norte 0 -- -- 95
2019-08-03 20:00:00 19.2 10 Norte 13 Norte 0 -- -- 93
2019-08-03 19:00:00 19 13 Norte 21 Norte 0 -- -- 92
2019-08-03 18:00:00 20.2 18 Norte 27 Norte 0 -- -- 88
2019-08-03 17:00:00 21.2 21 Norte 28 Norte 0 -- -- 83
2019-08-03 16:00:00 22.2 21 Norte 30 Norte 0 -- -- 80
2019-08-03 15:00:00 22.2 20 Norte 26 Norte 0 -- -- 80
2019-08-03 14:00:00 24.1 13 Norte 20 Norte 0 -- -- 73
2019-08-03 13:00:00 23.8 3 Sudeste 13 Sur 0 -- -- 73
2019-08-03 12:00:00 21.8 7 Sur 12 Sudeste 0 -- -- 79
2019-08-03 11:00:00 18.9 10 Sur 18 Sur 0 -- -- 88
2019-08-03 10:00:00 17.4 6 Sur 18 Sudoeste 0 -- -- 94
2019-08-03 09:00:00 16.2 9 Sur 15 Sur 0 -- -- 98
2019-08-03 08:00:00 16.3 8 Sur 12 Sur 0 -- -- 97
2019-08-03 07:00:00 16.5 4 Sudoeste 8 Sur 0 -- -- 97
2019-08-03 06:00:00 16.7 4 Sudoeste 5 Sudeste 0 -- -- 97
2019-08-03 05:00:00 16.9 0 Calma 6 Sur 0 -- -- 98
2019-08-03 04:00:00 17.1 2 Sur 6 Sudoeste 0 -- -- 100
2019-08-03 03:00:00 17.4 3 Sur 5 Sudeste 0 -- -- 100
2019-08-03 02:00:00 17.4 2 Sur 4 Sur 0 -- -- 100
2019-08-03 01:00:00 17.6 0 Calma 7 Sur 0 -- -- 100
2019-08-03 00:00:00 17.8 4 Sur 6 Sur 0 -- -- 99
2019-08-02 23:00:00 17.9 4 Sur 7 Sur 0 -- -- 97
2019-08-02 22:00:00 18.7 0 Calma 11 Norte 0 -- -- 96
2019-08-02 21:00:00 19.1 10 Norte 14 Noroeste 0 -- -- 93
2019-08-02 20:00:00 21.1 12 Noroeste 21 Norte 0 -- -- 85
2019-08-02 19:00:00 22.1 15 Norte 21 Norte 0 -- -- 81
2019-08-02 18:00:00 22.4 14 Norte 23 Norte 0 -- -- 80
2019-08-02 17:00:00 22.7 17 Norte 23 Norte 0 -- -- 81
2019-08-02 16:00:00 22.6 16 Norte 23 Norte 0 -- -- 79
2019-08-02 15:00:00 22.1 14 Norte 20 Norte 0 -- -- 80
2019-08-02 14:00:00 21.1 11 Norte 16 Norte 0 -- -- 85
2019-08-02 13:00:00 19.5 6 Norte 11 Norte 0 -- -- 88
2019-08-02 12:00:00 18.1 0 Calma 10 Sur 0 -- -- 92
2019-08-02 11:00:00 17.3 3 Sur 8 Sudeste 0 -- -- 97
2019-08-02 10:00:00 16 4 Sur 8 Sur 0 -- -- 100
2019-08-02 09:00:00 15.2 3 Sur 5 Sur 0 -- -- 100
2019-08-02 08:00:00 15 0 Calma 4 Sur 0 -- -- 100
2019-08-02 07:00:00 15.1 3 Sur 5 Sudeste 0 -- -- 100
2019-08-02 06:00:00 15 3 Sur 6 Sudoeste 0 -- -- 100
2019-08-02 05:00:00 14.6 3 Sur 5 Sur 0 -- -- 100
2019-08-02 04:00:00 15.7 2 Sudoeste 8 Norte 0 -- -- 100
2019-08-02 03:00:00 16.3 5 Norte 15 Norte 0 -- -- 100
2019-08-02 02:00:00 16.5 9 Norte 15 Norte 0 -- -- 100
2019-08-02 01:00:00 16.6 6 Norte 15 Norte 0 -- -- 100
2019-08-02 00:00:00 16.9 13 Norte 19 Norte 0 -- -- 98
2019-08-01 23:00:00 16.9 13 Norte 20 Norte 0 -- -- 97
2019-08-01 22:00:00 17.1 13 Norte 24 Norte 0 -- -- 96
2019-08-01 21:00:00 17.3 19 Norte 31 Norte 0 -- -- 96
2019-08-01 20:00:00 17.5 19 Norte 29 Norte 0 -- -- 97
2019-08-01 19:00:00 17.5 17 Norte 27 Norte 0 -- -- 97
2019-08-01 18:00:00 17.9 17 Norte 26 Norte 0 -- -- 94
2019-08-01 17:00:00 18 17 Norte 25 Norte 0 -- -- 94
2019-08-01 16:00:00 18.1 18 Norte 29 Norte 0 -- -- 93
2019-08-01 15:00:00 17.6 18 Norte 28 Norte 0 -- -- 95
2019-08-01 14:00:00 18.1 20 Norte 32 Noroeste 0 -- -- 93
2019-08-01 13:00:00 18.5 23 Norte 32 Norte 0 -- -- 89
2019-08-01 12:00:00 18.6 19 Norte 28 Norte 0 -- -- 89
2019-08-01 11:00:00 17.7 22 Norte 31 Norte 0 -- -- 87
2019-08-01 10:00:00 17 19 Norte 27 Norte 0 -- -- 90
2019-08-01 09:00:00 16.2 17 Norte 23 Norte 0 -- -- 95
2019-08-01 08:00:00 15.8 15 Norte 21 Norte 0 -- -- 97
2019-08-01 07:00:00 15.8 15 Norte 19 Norte 0 -- -- 98
2019-08-01 06:00:00 15.7 10 Norte 19 Norte 0 -- -- 98
2019-08-01 05:00:00 15.8 15 Norte 24 Norte 0 -- -- 98
2019-08-01 04:00:00 15.8 16 Norte 22 Norte 0 -- -- 97
2019-08-01 03:00:00 15.7 14 Norte 23 Norte 0 -- -- 96
2019-08-01 02:00:00 15.6 16 Norte 22 Norte 0 -- -- 95
2019-08-01 01:00:00 15.5 14 Norte 23 Norte 0 -- -- 96
2019-08-01 00:00:00 15.6 16 Norte 25 Norte 0 -- -- 95
2019-07-31 23:00:00 15.8 13 Norte 22 Norte 0 -- -- 94
2019-07-31 22:00:00 16 18 Norte 25 Norte 0 -- -- 92
2019-07-31 21:00:00 16.5 17 Norte 27 Norte 0 -- -- 90
2019-07-31 20:00:00 17.2 18 Norte 32 Norte 0 -- -- 87
2019-07-31 19:00:00 17.8 23 Norte 32 Norte 0 -- -- 85
2019-07-31 18:00:00 18.2 19 Norte 27 Norte 0 -- -- 85
2019-07-31 17:00:00 18 19 Norte 27 Norte 0 -- -- 85
2019-07-31 16:00:00 17.7 19 Norte 28 Norte 0 -- -- 85
2019-07-31 15:00:00 17.3 18 Norte 26 Norte 0 -- -- 86
2019-07-31 14:00:00 16.6 20 Norte 29 Nordeste 0 -- -- 87
2019-07-31 13:00:00 18.6 22 Norte 28 Norte 0 -- -- 80
2019-07-31 12:00:00 16.4 14 Norte 20 Norte 0 -- -- 88
2019-07-31 11:00:00 15.1 10 Norte 14 Norte 0 -- -- 90
2019-07-31 10:00:00 14.5 7 Norte 10 Norte 0 -- -- 93
2019-07-31 09:00:00 11.6 2 Sur 6 Nordeste 0 -- -- 99
2019-07-31 08:00:00 10.1 3 Sur 5 Sudoeste 0 -- -- 99
2019-07-31 07:00:00 9.9 3 Sur 4 Sur 0 -- -- 98
2019-07-31 06:00:00 10.1 2 Sudoeste 5 Sur 0 -- -- 98
2019-07-31 05:00:00 10.2 5 Sur 6 Sur 0 -- -- 98
2019-07-31 04:00:00 10.4 3 Sur 5 Sur 0 -- -- 96
2019-07-31 03:00:00 10.8 3 Sur 5 Sur 0 -- -- 96
2019-07-31 02:00:00 11.3 3 Sur 7 Nordeste 0 -- -- 94
2019-07-31 01:00:00 12.3 0 Calma 6 Nordeste 0 -- -- 93
2019-07-31 00:00:00 12.3 0 Calma 4 Noroeste 0 -- -- 93
2019-07-30 23:00:00 12.4 2 Norte 8 Norte 0 -- -- 92
2019-07-30 22:00:00 13.1 6 Norte 17 Norte 0 -- -- 88
2019-07-30 21:00:00 14.6 13 Norte 24 Norte 0 -- -- 84
2019-07-30 20:00:00 16.8 17 Norte 27 Norte 0 -- -- 75
2019-07-30 19:00:00 17.6 21 Norte 29 Norte 0 -- -- 73
2019-07-30 18:00:00 18.3 23 Norte 30 Norte 0 -- -- 68
2019-07-30 17:00:00 18.4 21 Norte 31 Norte 0 -- -- 69
2019-07-30 16:00:00 18.7 19 Norte 28 Norte 0 -- -- 72
2019-07-30 15:00:00 18.6 6 Nordeste 18 Norte 0 -- -- 69
2019-07-30 14:00:00 16.6 16 Norte 23 Norte 0 -- -- 80
2019-07-30 13:00:00 18.1 9 Sur 25 Sur 0 -- -- 68
2019-07-30 12:00:00 18.3 6 Sudeste 22 Sudeste 0 -- -- 64
2019-07-30 11:00:00 16.4 12 Sur 21 Sur 0 -- -- 74
2019-07-30 10:00:00 15.2 12 Sur 18 Sur 0 -- -- 82
2019-07-30 09:00:00 14.4 9 Sur 18 Sur 0 -- -- 85
2019-07-30 08:00:00 13.7 10 Sur 18 Sur 0 -- -- 87
2019-07-30 07:00:00 13.2 7 Sur 17 Sur 0 -- -- 87
2019-07-30 06:00:00 13.1 12 Sur 22 Sur 0 -- -- 88
2019-07-30 05:00:00 12.9 6 Sur 16 Sur 0 -- -- 88
2019-07-30 04:00:00 13.7 13 Sur 24 Sur 0 -- -- 86
2019-07-30 03:00:00 13.4 14 Sur 27 Sudoeste 0 -- -- 87
2019-07-30 02:00:00 13.8 11 Sur 27 Sur 0 -- -- 85
2019-07-30 01:00:00 14.2 15 Sur 30 Sur 0 -- -- 83
2019-07-30 00:00:00 14.6 14 Sur 31 Sudeste 0 -- -- 81
2019-07-29 23:00:00 15.1 14 Sur 28 Sur 0 -- -- 78
2019-07-29 22:00:00 15.6 11 Sur 37 Sur 0 -- -- 73
2019-07-29 21:00:00 16.9 12 Sur 42 Sudeste 0 -- -- 68
2019-07-29 20:00:00 17.8 21 Sudeste 40 Sur 0 -- -- 63
2019-07-29 19:00:00 18.8 22 Sur 41 Sudeste 0 -- -- 60
2019-07-29 18:00:00 19.9 22 Sur 50 Sur 0 -- -- 58
2019-07-29 17:00:00 20.4 34 Sur 54 Sur 0 -- -- 58
2019-07-29 16:00:00 21.4 15 Sur 58 Sur 0 -- -- 60
2019-07-29 15:00:00 20.4 24 Sur 51 Sur 0 -- -- 64
2019-07-29 14:00:00 18.6 31 Sur 53 Sur 0 -- -- 70
2019-07-29 13:00:00 18.6 29 Sur 53 Sur 0 -- -- 69
2019-07-29 12:00:00 17.9 25 Sur 50 Sur 0 -- -- 72
2019-07-29 11:00:00 17.7 27 Sur 48 Sur 0 -- -- 74
2019-07-29 10:00:00 16.7 26 Sur 44 Sur 0 -- -- 78
2019-07-29 09:00:00 16.4 23 Sur 39 Sur 0 -- -- 82
2019-07-29 08:00:00 16.3 21 Sur 40 Sur 0 -- -- 84
2019-07-29 07:00:00 16.7 24 Sur 39 Sur 0 -- -- 83
2019-07-29 06:00:00 17.2 21 Sur 44 Sur 0 -- -- 80
2019-07-29 05:00:00 17.1 25 Sur 51 Sur 0 -- -- 78
2019-07-29 04:00:00 18 21 Sur 35 Sur 0 -- -- 72
2019-07-29 03:00:00 18.6 20 Sur 41 Sur 0 -- -- 64
2019-07-29 02:00:00 17.6 15 Sur 42 Sur 0 -- -- 65
2019-07-29 01:00:00 17.8 19 Sur 32 Sur 0 -- -- 63
2019-07-29 00:00:00 16.2 8 Sur 19 Sur 0 -- -- 89
2019-07-28 23:00:00 16.3 5 Sur 8 Sur 0 -- -- 94
2019-07-28 22:00:00 17.8 3 Sur 5 Sudoeste 0 -- -- 89
2019-07-28 21:00:00 19.2 4 Norte 9 Norte 0 -- -- 84
2019-07-28 20:00:00 21.9 8 Noroeste 15 Norte 0 -- -- 76
2019-07-28 19:00:00 22.6 10 Norte 17 Norte 0 -- -- 74
2019-07-28 18:00:00 22.9 7 Norte 19 Norte 0 -- -- 71
2019-07-28 17:00:00 22.3 13 Norte 19 Norte 0 -- -- 73
2019-07-28 16:00:00 21.9 15 Norte 20 Norte 0 -- -- 75
2019-07-28 15:00:00 21.5 12 Norte 20 Norte 0 -- -- 76
2019-07-28 14:00:00 21 9 Norte 19 Nordeste 0 -- -- 77
2019-07-28 13:00:00 20 7 Norte 17 Norte 0 -- -- 78
2019-07-28 12:00:00 18.2 7 Nordeste 10 Nordeste 0 -- -- 84
2019-07-28 11:00:00 15.8 2 Sur 7 Sur 0 -- -- 93
2019-07-28 10:00:00 15 3 Sur 10 Sur 0 -- -- 93
2019-07-28 09:00:00 12.2 8 Sur 11 Sur 0.2 -- -- 100
2019-07-28 08:00:00 11.6 5 Sur 8 Sur 0 -- -- 100
2019-07-28 07:00:00 10.9 5 Sudoeste 6 Sudoeste 0 -- -- 100
2019-07-28 06:00:00 11.4 4 Sur 9 Sur 0 -- -- 100
2019-07-28 05:00:00 11.7 0 Calma 8 Sur 0 -- -- 100
2019-07-28 04:00:00 11.9 3 Sur 8 Sur 0 -- -- 100
2019-07-28 03:00:00 12.2 3 Sudoeste 9 Sur 0 -- -- 100
2019-07-28 02:00:00 12.5 2 Sur 4 Sur 0 -- -- 100
2019-07-28 01:00:00 12.9 0 Calma 3 Sudoeste 0 -- -- 100
2019-07-28 00:00:00 13.2 3 Sudoeste 5 Sur 0 -- -- 100
2019-07-27 23:00:00 13.9 0 Calma 6 Norte 0 -- -- 99
2019-07-26 12:00:00 -- -- -- -- -- -- -- -- --
2019-07-26 11:00:00 17.8 6 Noroeste 23 Sur 0 -- -- 84
2019-07-26 10:00:00 17.9 11 Sur 19 Sur 0 -- -- 82
2019-07-26 09:00:00 16.5 10 Sur 15 Sur 0 -- -- 89
2019-07-26 08:00:00 15.1 7 Sur 12 Sur 0 -- -- 96
2019-07-26 07:00:00 14.9 4 Sur 14 Sur 0 -- -- 94
2019-07-26 06:00:00 15.5 8 Sur 21 Sudeste 0 -- -- 92
2019-07-26 05:00:00 14.7 8 Sur 28 Sur 0 -- -- 95
2019-07-26 04:00:00 15.8 15 Sur 27 Sur 0 -- -- 89
2019-07-26 03:00:00 15.6 7 Sur 21 Sudeste 0 -- -- 92
2019-07-26 02:00:00 16.2 10 Sur 19 Sur 0 -- -- 91
2019-07-26 01:00:00 16.5 8 Sur 14 Sur 0 -- -- 92
2019-07-26 00:00:00 16.7 5 Sur 8 Sur 0 -- -- 98
2019-07-25 23:00:00 16.4 2 Norte 12 Nordeste 0 -- -- 97
2019-07-25 22:00:00 18.7 2 Noroeste 19 Sur 0 -- -- 86
2019-07-25 21:00:00 19.7 13 Sur 27 Sur 0 -- -- 81
2019-07-25 20:00:00 19.3 17 Sur 28 Sur 0 -- -- 83
2019-07-25 19:00:00 17.9 10 Sur 29 Sur 0.4 -- -- 92
2019-07-25 18:00:00 17.9 13 Sur 41 Sur 0.8 -- -- 92
2019-07-25 17:00:00 19.8 23 Sur 41 Sur 0 -- -- 83
2019-07-25 16:00:00 21.1 13 Norte 23 Norte 0 -- -- 87
2019-07-25 15:00:00 24.6 12 Norte 33 Sur 0 -- -- 72
2019-07-25 14:00:00 26.1 17 Sur 34 Sur 0 -- -- 59
2019-07-25 13:00:00 25.2 16 Sur 41 Sur 0 -- -- 63
2019-07-25 12:00:00 24.9 22 Sur 38 Sur 0 -- -- 66
2019-07-25 11:00:00 22.3 25 Sur 37 Sur 0 -- -- 73
2019-07-25 10:00:00 21.1 17 Sur 49 Sur 0 -- -- 78
2019-07-25 09:00:00 20.5 26 Sur 47 Sur 0 -- -- 80
2019-07-25 08:00:00 18.1 18 Sur 32 Sur 0 -- -- 84
2019-07-25 07:00:00 16.5 4 Sur 11 Sur 0 -- -- 90
2019-07-25 06:00:00 16.8 5 Sur 10 Sudoeste 0 -- -- 90
2019-07-25 05:00:00 17 2 Sur 7 Sur 0 -- -- 90
2019-07-25 04:00:00 17.4 4 Sur 10 Sur 0 -- -- 92
2019-07-25 03:00:00 17.4 5 Sur 10 Sur 0 -- -- 98
2019-07-25 02:00:00 18.1 3 Sur 6 Sur 0 -- -- 99
2019-07-25 01:00:00 17.9 5 Sur 8 Sur 0 -- -- 100
2019-07-25 00:00:00 18.2 3 Sur 9 Sur 0 -- -- 100
2019-07-24 23:00:00 18.3 0 Calma 6 Norte 0 -- -- 100
2019-07-24 22:00:00 19 5 Norte 13 Norte 0 -- -- 99
2019-07-24 21:00:00 21 5 Norte 10 Norte 0 -- -- 91
2019-07-24 20:00:00 22.7 8 Norte 14 Norte 0 -- -- 84
2019-07-24 19:00:00 23.4 10 Norte 17 Norte 0 -- -- 80
2019-07-24 18:00:00 22.5 14 Norte 23 Norte 0 -- -- 86
2019-07-24 17:00:00 23.1 18 Norte 23 Norte 0 -- -- 84
2019-07-24 16:00:00 23.9 15 Norte 22 Norte 0 -- -- 82
2019-07-24 15:00:00 24.8 14 Norte 18 Norte 0 -- -- 80
2019-07-24 14:00:00 24.1 12 Norte 17 Norte 0 -- -- 81
2019-07-24 13:00:00 23.3 11 Norte 15 Norte 0 -- -- 82
2019-07-24 12:00:00 22.5 9 Norte 15 Norte 0 -- -- 85
2019-07-24 11:00:00 20.6 3 Sudeste 7 Sur 0 -- -- 95
2019-07-24 10:00:00 18 3 Sur 8 Sur 0 -- -- 100
2019-07-24 09:00:00 17.1 3 Sur 17 Sur 0 -- -- 100
2019-07-24 08:00:00 16.8 13 Sur 21 Sur 0 -- -- 100
2019-07-24 07:00:00 16.9 11 Sur 18 Sur 0 -- -- 100
2019-07-24 06:00:00 17.2 13 Sur 22 Sur 0 -- -- 100
2019-07-24 05:00:00 17.3 12 Sur 17 Sur 0 -- -- 100
2019-07-24 04:00:00 17.4 4 Sur 7 Sur 0 -- -- 100
2019-07-24 03:00:00 17.4 0 Calma 7 Norte 0 -- -- 100
2019-07-24 02:00:00 17.4 5 Norte 8 Norte 0 -- -- 100
2019-07-24 01:00:00 17.4 5 Norte 12 Norte 0 -- -- 100
2019-07-24 00:00:00 17.6 9 Norte 12 Norte 0 -- -- 100
2019-07-23 23:00:00 18.1 0 Calma 5 Norte 0 -- -- 100
2019-07-23 22:00:00 19.1 2 Sudoeste 8 Norte 0 -- -- 98
2019-07-23 21:00:00 20.1 6 Norte 14 Norte 0 -- -- 96
2019-07-23 20:00:00 19.6 4 Norte 16 Norte 0 -- -- 99
2019-07-23 19:00:00 19.5 14 Norte 26 Norte 0 -- -- 98
2019-07-23 18:00:00 20.6 18 Norte 23 Norte 0 -- -- 95
2019-07-23 17:00:00 20.2 17 Norte 27 Norte 0 -- -- 96
2019-07-23 16:00:00 22.8 18 Norte 23 Norte 0 -- -- 91
2019-07-23 15:00:00 21.7 14 Norte 17 Norte 0 -- -- 93
2019-07-23 14:00:00 21.9 8 Norte 14 Norte 0 -- -- 92
2019-07-23 13:00:00 22.7 11 Norte 15 Norte 0 -- -- 91
2019-07-23 12:00:00 23.8 12 Norte 14 Norte 0.2 -- -- 89
2019-07-23 11:00:00 21.8 2 Sudeste 7 Sur 0 -- -- 94
2019-07-23 10:00:00 20.8 6 Sur 13 Sur 0 -- -- 100
2019-07-23 09:00:00 18.3 8 Sur 15 Sudoeste 0 -- -- 100
2019-07-23 08:00:00 17.6 12 Sur 17 Sur 0 -- -- 100
2019-07-23 07:00:00 17.7 7 Sur 15 Sur 0 -- -- 100
2019-07-23 06:00:00 18.1 12 Sur 19 Sur 0 -- -- 100
2019-07-23 05:00:00 18.4 0 Calma 14 Sur 0 -- -- 100
2019-07-23 04:00:00 18.6 4 Sur 7 Sur 0.2 -- -- 100
2019-07-23 03:00:00 18.6 0 Calma 5 Sur 0.2 -- -- 100
2019-07-23 02:00:00 18.7 0 Calma 7 Sur 0 -- -- 100
2019-07-23 01:00:00 18.7 5 Sur 8 Sur 0 -- -- 100
2019-07-23 00:00:00 18.9 3 Norte 14 Norte 0.2 -- -- 100
2019-07-22 23:00:00 18.8 8 Norte 11 Norte 0 -- -- 100
2019-07-22 22:00:00 19.1 7 Norte 10 Norte 0 -- -- 100
2019-07-22 21:00:00 19.4 6 Norte 10 Norte 0 -- -- 100
2019-07-22 20:00:00 19.8 10 Norte 12 Norte 0 -- -- 100
2019-07-22 19:00:00 20.3 10 Norte 14 Norte 0 -- -- 98
2019-07-22 18:00:00 20.8 10 Norte 17 Norte 0 -- -- 96
2019-07-22 17:00:00 21 12 Norte 18 Norte 0 -- -- 96
2019-07-22 16:00:00 21.4 11 Norte 17 Norte 0 -- -- 93
2019-07-22 15:00:00 21.3 11 Norte 15 Norte 0 -- -- 92
2019-07-22 14:00:00 20.6 11 Norte 16 Norte 0 -- -- 95
2019-07-22 13:00:00 20.4 7 Norte 11 Norte 0 -- -- 97
2019-07-22 12:00:00 20.1 3 Norte 9 Norte 0 -- -- 100
2019-07-22 11:00:00 19 4 Sur 6 Sur 0 -- -- 100
2019-07-22 10:00:00 18.4 0 Calma 5 Norte 0 -- -- 100
2019-07-22 09:00:00 18.1 0 Calma 6 Norte 0 -- -- 100
2019-07-22 08:00:00 17.8 6 Norte 7 Norte 0 -- -- 100
2019-07-22 07:00:00 17.5 6 Norte 12 Norte 0 -- -- 100
2019-07-22 06:00:00 17.4 9 Norte 15 Noroeste 0 -- -- 100
2019-07-22 05:00:00 17.2 10 Norte 15 Norte 0 -- -- 100
2019-07-22 04:00:00 17.3 7 Norte 10 Norte 0 -- -- 100
2019-07-22 03:00:00 17.4 7 Norte 9 Norte 0 -- -- 100
2019-07-22 02:00:00 17.7 7 Norte 13 Norte 0 -- -- 100
2019-07-22 01:00:00 18 12 Norte 19 Norte 0 -- -- 100
2019-07-22 00:00:00 18.1 13 Norte 18 Norte 0 -- -- 100
2019-07-21 23:00:00 18 14 Norte 23 Norte 0 -- -- 100
2019-07-21 22:00:00 17.9 14 Norte 24 Norte 0 -- -- 100
2019-07-21 21:00:00 17.8 13 Norte 22 Norte 0 -- -- 100
2019-07-21 20:00:00 17.9 17 Norte 27 Norte 0 -- -- 100
2019-07-21 19:00:00 18.2 21 Norte 28 Norte 0 -- -- 100
2019-07-21 18:00:00 19.2 19 Norte 26 Norte 0 -- -- 98
2019-07-21 17:00:00 18.1 14 Norte 24 Norte 0 -- -- 100
2019-07-21 16:00:00 18.2 14 Norte 28 Norte 0 -- -- 100
2019-07-21 15:00:00 18.4 21 Norte 29 Norte 0 -- -- 99
2019-07-21 14:00:00 18.9 19 Norte 26 Norte 0 -- -- 99
2019-07-21 13:00:00 18.6 13 Norte 20 Norte 0 -- -- 100
2019-07-21 12:00:00 17.7 10 Norte 23 Noroeste 0 -- -- 100
2019-07-21 11:00:00 17 15 Norte 24 Norte 0 -- -- 100
2019-07-21 10:00:00 16.8 15 Norte 21 Norte 0 -- -- 100
2019-07-21 09:00:00 16.6 12 Norte 18 Norte 0 -- -- 100
2019-07-21 08:00:00 16.3 11 Norte 15 Norte 0 -- -- 100
2019-07-21 07:00:00 16.1 12 Norte 15 Norte 0 -- -- 100
2019-07-21 06:00:00 16.1 10 Norte 15 Norte 0 -- -- 100
2019-07-21 05:00:00 16.2 10 Norte 12 Norte 0 -- -- 100
2019-07-21 04:00:00 16.1 8 Norte 11 Norte 0 -- -- 100
2019-07-21 03:00:00 15.6 9 Norte 13 Norte 0 -- -- 100
2019-07-21 02:00:00 16.2 8 Norte 14 Norte 0 -- -- 100
2019-07-21 01:00:00 16.3 10 Norte 14 Nordeste 0 -- -- 100
2019-07-21 00:00:00 15.8 5 Norte 7 Norte 0 -- -- 100
2019-07-20 23:00:00 16.3 4 Norte 10 Noroeste 0 -- -- 99
2019-07-20 22:00:00 16.9 7 Norte 14 Norte 0 -- -- 98
2019-07-20 21:00:00 17.2 11 Norte 22 Norte 0 -- -- 95
2019-07-20 20:00:00 17.4 15 Norte 25 Norte 0 -- -- 94
2019-07-20 19:00:00 18 17 Norte 24 Norte 0 -- -- 90
2019-07-20 18:00:00 18.2 19 Norte 26 Norte 0 -- -- 91
2019-07-20 17:00:00 18.1 16 Norte 30 Norte 0 -- -- 94
2019-07-20 16:00:00 18.8 21 Norte 34 Norte 0 -- -- 93
2019-07-20 15:00:00 21.6 24 Norte 31 Norte 0 -- -- 85
2019-07-20 14:00:00 22.7 22 Norte 30 Norte 0 -- -- 81
2019-07-20 13:00:00 22.6 13 Sur 23 Sur 0 -- -- 70
2019-07-20 12:00:00 21.2 10 Sur 21 Sur 0 -- -- 75
2019-07-20 11:00:00 20.4 10 Sur 24 Sur 0 -- -- 82
2019-07-20 10:00:00 18.2 16 Sur 24 Sur 0 -- -- 93
2019-07-20 09:00:00 16.4 12 Sur 19 Sur 0 -- -- 100
2019-07-20 08:00:00 15.1 9 Sur 17 Sur 0 -- -- 100
2019-07-20 07:00:00 14.9 6 Sur 9 Sur 0 -- -- 100
2019-07-20 06:00:00 15.5 7 Sur 12 Sur 0 -- -- 100
2019-07-20 05:00:00 15.9 7 Sur 10 Sur 0 -- -- 99
2019-07-20 04:00:00 15.9 6 Sur 13 Sur 0 -- -- 99
2019-07-20 03:00:00 16.1 6 Sur 10 Sudoeste 0 -- -- 97
2019-07-20 02:00:00 16.6 5 Sur 9 Sur 0 -- -- 96
2019-07-20 01:00:00 16.7 8 Sur 10 Sur 0 -- -- 96
2019-07-20 00:00:00 16.3 6 Sur 9 Sur 0 -- -- 98
2019-07-19 23:00:00 17 0 Calma 8 Sur 0 -- -- 96
2019-07-19 22:00:00 17.5 3 Norte 13 Norte 0 -- -- 93
2019-07-19 21:00:00 18.8 12 Norte 17 Norte 0 -- -- 89
2019-07-19 20:00:00 19.6 13 Norte 18 Norte 0 -- -- 88
2019-07-19 19:00:00 20.8 15 Norte 22 Norte 0 -- -- 84
2019-07-19 18:00:00 21.8 15 Norte 20 Norte 0 -- -- 82
2019-07-19 17:00:00 22.3 15 Norte 20 Norte 0 -- -- 81
2019-07-19 16:00:00 22.7 13 Norte 19 Norte 0 -- -- 83
2019-07-19 15:00:00 21.3 10 Norte 17 Norte 0 -- -- 86
2019-07-19 14:00:00 20.7 12 Norte 17 Norte 0 -- -- 87
2019-07-19 13:00:00 19.4 6 Norte 12 Norte 0 -- -- 90
2019-07-19 12:00:00 17.9 3 Sur 8 Sur 0 -- -- 94
2019-07-19 11:00:00 17.1 3 Este 6 Norte 0 -- -- 96
2019-07-19 10:00:00 16.4 3 Norte 6 Norte 0 -- -- 98
2019-07-19 09:00:00 16 0 Calma 6 Nordeste 0 -- -- 99
2019-07-19 08:00:00 15.8 4 Norte 8 Este 0 -- -- 99
2019-07-19 07:00:00 15.6 3 Nordeste 7 Norte 0 -- -- 100
2019-07-19 06:00:00 15.8 4 Nordeste 10 Norte 0 -- -- 100
2019-07-19 05:00:00 16 7 Norte 12 Norte 0 -- -- 100
2019-07-19 04:00:00 16.1 5 Norte 10 Norte 0 -- -- 100
2019-07-19 03:00:00 16.2 7 Norte 10 Norte 0 -- -- 100
2019-07-19 02:00:00 16.4 8 Norte 13 Norte 0 -- -- 100
2019-07-19 01:00:00 16.5 9 Norte 15 Norte 0 -- -- 100
2019-07-19 00:00:00 16.5 10 Norte 13 Norte 0 -- -- 100